Time;durP1;ratioP1;P1;durP2;ratioP2;P2;SDS_P1;SDS_P2;PMS_P1;PMS_P2;Temp;Humidity;BMP_temperature;BMP_pressure;BME280_temperature;BME280_humidity;BME280_pressure;Samples;Min_cycle;Max_cycle;Signal;HPM_P1;HPM_P2
2022/06/21 00:00:39;;;;;;;6.32;3.90;;;;;;;15.35;66.20;97994.38;4972510;28;20447;-64
2022/06/21 00:03:11;;;;;;;6.90;3.50;;;;;;;15.38;66.25;97996.44;4955083;28;20043;-64
2022/06/21 00:05:40;;;;;;;7.00;3.58;;;;;;;15.39;65.07;98000.69;4972582;28;20058;-63
2022/06/21 00:08:12;;;;;;;7.43;3.63;;;;;;;15.41;66.36;97993.16;4972000;28;20042;-63
2022/06/21 00:10:38;;;;;;;5.07;3.17;;;;;;;15.38;65.17;97991.91;4972554;28;20121;-62
2022/06/21 00:13:10;;;;;;;4.88;3.63;;;;;;;15.40;66.46;97987.03;4954669;28;20042;-63
2022/06/21 00:15:36;;;;;;;6.07;3.33;;;;;;;15.42;65.58;97986.75;4954915;28;20492;-62
2022/06/21 00:18:01;;;;;;;9.10;3.53;;;;;;;15.42;66.12;97987.53;4955701;28;20141;-62
2022/06/21 00:20:28;;;;;;;5.95;3.42;;;;;;;15.38;66.72;97986.56;4958251;28;20441;-62
2022/06/21 00:22:53;;;;;;;9.27;3.83;;;;;;;15.38;65.10;97985.75;4975476;28;20051;-62
2022/06/21 00:25:25;;;;;;;4.68;3.17;;;;;;;15.39;64.14;97979.34;4958106;28;20458;-63
2022/06/21 00:27:52;;;;;;;4.80;2.97;;;;;;;15.39;64.62;97976.69;4975546;28;20034;-63
2022/06/21 00:30:18;;;;;;;6.25;3.95;;;;;;;15.36;65.98;97985.28;4975196;28;20416;-63
2022/06/21 00:32:46;;;;;;;6.82;3.38;;;;;;;15.36;66.38;97979.94;4975238;28;20161;-63
2022/06/21 00:35:15;;;;;;;4.45;3.53;;;;;;;15.38;66.24;97988.44;4975527;28;20058;-64
2022/06/21 00:37:41;;;;;;;11.88;4.47;;;;;;;15.39;67.99;97982.81;4958089;28;20160;-63
2022/06/21 00:40:20;;;;;;;11.38;4.95;;;;;;;15.38;68.61;97977.75;4975405;28;20082;-64
2022/06/21 00:42:50;;;;;;;9.82;4.07;;;;;;;15.36;67.68;97987.97;4974986;28;20042;-62
2022/06/21 00:45:28;;;;;;;7.38;3.90;;;;;;;15.30;68.00;97979.28;4975408;28;20053;-63
2022/06/21 00:47:57;;;;;;;8.70;3.90;;;;;;;15.30;68.00;97981.16;4957636;28;20058;-63
2022/06/21 00:50:26;;;;;;;5.57;3.80;;;;;;;15.24;67.13;97974.38;4957840;28;20058;-63
2022/06/21 00:52:58;;;;;;;6.15;3.72;;;;;;;15.23;66.70;97984.22;4974810;28;20552;-63
2022/06/21 00:55:51;;;;;;;7.50;3.47;;;;;;;15.25;65.26;97991.94;4975206;28;20051;-62
2022/06/21 00:58:18;;;;;;;5.75;3.55;;;;;;;15.21;65.52;97995.22;4974696;28;20078;-63
2022/06/21 01:01:05;;;;;;;5.82;3.60;;;;;;;15.19;64.95;97992.06;4957796;28;20472;-62
2022/06/21 01:03:37;;;;;;;3.50;3.00;;;;;;;15.10;63.30;97985.06;4957264;28;20510;-64
2022/06/21 01:06:07;;;;;;;6.00;3.20;;;;;;;15.14;62.78;97981.50;4957454;28;20040;-62
2022/06/21 01:08:34;;;;;;;;;;;;;;;15.18;61.26;97984.38;4974997;28;20050;-63
2022/06/21 01:11:05;;;;;;;4.93;2.92;;;;;;;15.18;61.31;97977.16;4974866;28;20311;-63
2022/06/21 01:13:33;;;;;;;5.57;3.40;;;;;;;15.19;61.42;97975.25;4957667;28;20066;-62
2022/06/21 01:15:59;;;;;;;6.03;3.30;;;;;;;15.20;61.07;97964.25;4957262;28;20493;-63
2022/06/21 01:18:26;;;;;;;8.13;3.47;;;;;;;15.20;61.74;97966.94;4974303;28;20043;-62
2022/06/21 01:20:55;;;;;;;9.95;3.53;;;;;;;15.18;63.07;97947.00;4974295;28;20046;-65
2022/06/21 01:23:48;;;;;;;6.50;3.28;;;;;;;15.17;62.18;97948.06;4956944;28;20476;-61
2022/06/21 01:26:40;;;;;;;4.00;3.20;;;;;;;15.19;62.69;97948.56;4974503;28;20042;-64
2022/06/21 01:29:10;;;;;;;6.45;3.85;;;;;;;15.17;64.07;97940.06;4973208;28;20563;-62
2022/06/21 01:31:37;;;;;;;6.60;4.25;;;;;;;15.15;63.99;97929.72;4957030;28;20559;-63
2022/06/21 01:34:03;;;;;;;6.18;3.75;;;;;;;15.13;64.69;97923.09;4974312;28;20051;-63
2022/06/21 01:36:32;;;;;;;7.88;3.78;;;;;;;15.08;65.06;97920.53;4973976;28;20543;-64
2022/06/21 01:39:03;;;;;;;6.75;3.95;;;;;;;15.11;65.82;97909.25;4940681;28;20394;-65
2022/06/21 01:41:34;;;;;;;6.60;3.70;;;;;;;15.10;65.71;97910.34;4956702;28;20047;-63
2022/06/21 01:44:01;;;;;;;;;;;;;;;15.10;65.53;97905.00;4974438;28;20527;-63
2022/06/21 01:46:30;;;;;;;5.30;2.75;;;;;;;15.11;63.98;97895.91;4974083;28;19984;-64
2022/06/21 01:49:03;;;;;;;5.50;3.72;;;;;;;15.12;65.93;97902.84;4956766;28;20133;-62
2022/06/21 01:51:33;;;;;;;9.48;3.67;;;;;;;15.10;66.59;97894.34;4956848;28;20070;-63
2022/06/21 01:54:00;;;;;;;8.68;3.95;;;;;;;15.10;66.66;97899.69;4973786;28;20523;-64
2022/06/21 01:56:30;;;;;;;9.35;3.75;;;;;;;15.09;67.22;97901.56;4956579;28;20050;-63
2022/06/21 01:59:02;;;;;;;8.70;3.88;;;;;;;15.10;66.45;97900.47;4973668;28;20137;-63
2022/06/21 02:01:33;;;;;;;5.32;3.38;;;;;;;15.13;66.58;97905.19;4973611;28;20110;-62
2022/06/21 02:04:02;;;;;;;6.10;3.90;;;;;;;15.16;65.08;97903.81;4956229;28;20413;-63
2022/06/21 02:06:32;;;;;;;7.07;3.30;;;;;;;15.12;64.59;97900.94;4956169;28;20047;-64
2022/06/21 02:09:04;;;;;;;6.63;3.72;;;;;;;15.15;64.91;97911.03;4956213;28;20497;-63
2022/06/21 02:11:40;;;;;;;6.15;3.30;;;;;;;15.19;64.04;97903.97;4956392;28;20077;-63
2022/06/21 02:14:30;;;;;;;5.10;3.40;;;;;;;15.23;63.97;97906.81;4973639;28;20054;-63
2022/06/21 02:17:01;;;;;;;6.82;3.10;;;;;;;15.29;63.93;97916.28;4958640;28;20065;-64
2022/06/21 02:19:29;;;;;;;5.68;3.13;;;;;;;15.32;61.81;97920.22;4973494;28;20457;-62
2022/06/21 02:21:55;;;;;;;6.63;3.55;;;;;;;15.34;62.60;97913.50;4973492;28;20121;-63
2022/06/21 02:24:23;;;;;;;7.47;3.88;;;;;;;15.37;63.24;97922.78;4973289;28;20489;-63
2022/06/21 02:26:50;;;;;;;13.43;3.65;;;;;;;15.38;63.78;97914.47;4955933;28;20050;-64
2022/06/21 02:29:16;;;;;;;8.35;3.58;;;;;;;15.40;63.37;97922.97;4955821;28;20055;-64
2022/06/21 02:31:42;;;;;;;10.55;4.00;;;;;;;15.44;64.87;97926.63;4973306;28;20057;-65
2022/06/21 02:34:19;;;;;;;7.50;3.88;;;;;;;15.47;64.53;97922.56;4973103;28;20047;-63
2022/06/21 02:36:52;;;;;;;6.90;3.95;;;;;;;15.49;65.58;97923.00;4955736;28;20047;-63
2022/06/21 02:39:22;;;;;;;9.00;4.22;;;;;;;15.50;64.26;97919.28;4955681;28;20046;-65
2022/06/21 02:42:17;;;;;;;7.88;4.28;;;;;;;15.53;64.09;97929.34;4972557;28;20038;-63
2022/06/21 02:44:55;;;;;;;10.43;4.90;;;;;;;15.55;63.22;97940.47;4973196;28;20047;-63
2022/06/21 02:47:25;;;;;;;10.77;5.43;;;;;;;15.55;63.70;97929.81;4973078;28;20068;-62
2022/06/21 02:50:01;;;;;;;10.93;6.18;;;;;;;15.62;63.49;97927.50;4955773;28;20097;-62
2022/06/21 02:52:32;;;;;;;9.95;4.22;;;;;;;15.65;63.04;97928.78;4955911;28;20038;-64
2022/06/21 02:55:22;;;;;;;7.35;4.63;;;;;;;15.71;63.43;97924.91;4955764;28;20431;-62
2022/06/21 02:58:13;;;;;;;8.30;5.78;;;;;;;15.74;63.62;97915.50;4972187;28;20057;-64
2022/06/21 03:00:39;;;;;;;8.55;6.32;;;;;;;15.77;64.35;97915.66;4955699;28;20055;-63
2022/06/21 03:03:07;;;;;;;15.40;7.40;;;;;;;15.82;65.03;97917.41;4955420;28;20049;-62
2022/06/21 03:05:34;;;;;;;15.00;7.38;;;;;;;15.88;65.84;97910.81;4972503;28;20097;-63
2022/06/21 03:08:03;;;;;;;11.82;6.68;;;;;;;15.93;65.52;97913.38;4939415;28;20050;-64
2022/06/21 03:10:37;;;;;;;14.23;6.73;;;;;;;16.01;65.21;97906.50;4955529;28;20043;-63
2022/06/21 03:13:14;;;;;;;10.68;6.18;;;;;;;16.06;65.81;97906.34;4955650;28;20360;-62
2022/06/21 03:15:41;;;;;;;12.60;5.85;;;;;;;16.07;65.53;97898.03;4972887;28;20046;-63
2022/06/21 03:18:10;;;;;;;9.45;4.63;;;;;;;16.16;63.88;97902.63;4955184;28;20822;-63
2022/06/21 03:20:36;;;;;;;10.30;4.35;;;;;;;16.15;63.64;97901.03;4955118;28;20046;-64
2022/06/21 03:23:03;;;;;;;7.55;4.45;;;;;;;16.12;63.29;97905.13;4955503;28;20049;-63
2022/06/21 03:25:41;;;;;;;8.77;4.40;;;;;;;16.12;63.29;97902.44;4939063;28;20039;-62
2022/06/21 03:28:27;;;;;;;6.72;4.30;;;;;;;16.14;63.13;97900.25;4972375;28;20057;-63
2022/06/21 03:31:09;;;;;;;10.05;4.40;;;;;;;16.18;63.01;97905.75;4939049;28;20529;-64
2022/06/21 03:33:37;;;;;;;8.38;4.65;;;;;;;16.20;63.42;97899.00;4955292;28;20038;-64
2022/06/21 03:36:06;;;;;;;7.78;4.13;;;;;;;16.25;63.32;97895.41;4955081;28;20050;-61
2022/06/21 03:38:32;;;;;;;12.88;4.15;;;;;;;16.25;62.28;97887.38;4955213;28;20046;-63
2022/06/21 03:43:52;;;;;;;7.15;3.58;;;;;;;16.31;61.69;97894.94;4972492;28;20042;-63
2022/06/21 03:46:46;;;;;;;7.35;3.53;;;;;;;16.35;61.72;97889.75;4954934;28;20099;-64
2022/06/21 03:49:20;;;;;;;6.28;3.50;;;;;;;16.38;61.10;97896.38;4972325;28;20074;-64
2022/06/21 03:51:46;;;;;;;8.45;3.30;;;;;;;16.37;60.54;97884.88;4972290;28;20098;-63
2022/06/21 03:54:17;;;;;;;7.40;3.10;;;;;;;16.43;60.29;97888.22;4975407;28;20050;-63
2022/06/21 03:56:54;;;;;;;6.05;3.08;;;;;;;16.42;60.30;97889.31;4942494;28;20050;-62
2022/06/21 03:59:43;;;;;;;6.88;3.05;;;;;;;16.45;60.55;97881.44;4958479;28;20076;-63
2022/06/21 04:02:15;;;;;;;7.93;3.28;;;;;;;16.48;60.33;97880.81;4976229;28;20092;-64
2022/06/21 04:04:50;;;;;;;10.07;3.67;;;;;;;16.51;60.67;97876.75;4958558;28;20106;-63
2022/06/21 04:07:30;;;;;;;6.90;3.20;;;;;;;16.53;59.46;97866.50;4975694;28;20492;-64
2022/06/21 04:10:16;;;;;;;7.80;3.80;;;;;;;16.52;59.90;97856.91;4975697;28;20086;-64
2022/06/21 04:12:53;;;;;;;6.47;3.35;;;;;;;16.51;59.68;97863.38;4942683;28;20047;-64
2022/06/21 04:15:28;;;;;;;7.10;3.33;;;;;;;16.54;60.08;97858.19;4958386;28;20130;-64
2022/06/21 04:18:06;;;;;;;8.90;3.78;;;;;;;16.54;60.63;97860.84;4975389;28;20068;-64
2022/06/21 04:20:38;;;;;;;6.63;3.80;;;;;;;16.59;60.63;97867.94;4975799;28;20043;-64
2022/06/21 04:23:19;;;;;;;6.57;3.72;;;;;;;16.62;60.36;97856.63;4958039;28;20042;-62
2022/06/21 04:25:51;;;;;;;7.43;3.63;;;;;;;16.63;60.05;97857.41;4975435;28;20137;-64
2022/06/21 04:28:33;;;;;;;8.52;3.28;;;;;;;16.62;60.13;97856.63;4975196;28;20497;-63
2022/06/21 04:31:04;;;;;;;11.45;3.38;;;;;;;16.64;59.55;97850.94;4942066;28;20050;-62
2022/06/21 04:33:33;;;;;;;8.50;3.25;;;;;;;16.58;58.72;97843.06;4957925;28;20580;-65
2022/06/21 04:36:16;;;;;;;6.35;3.72;;;;;;;16.58;58.81;97831.56;4975269;28;20077;-63
2022/06/21 04:39:33;;;;;;;7.05;3.13;;;;;;;16.52;59.50;97830.94;4958147;28;20055;-63
2022/06/21 04:42:08;;;;;;;5.93;3.20;;;;;;;16.51;59.74;97823.25;4957701;28;20042;-64
2022/06/21 04:44:42;;;;;;;5.68;2.85;;;;;;;16.45;59.20;97805.78;4957540;28;20073;-64
2022/06/21 04:47:52;;;;;;;5.03;3.15;;;;;;;16.62;58.94;97824.50;4957892;28;20142;-63
2022/06/21 04:50:34;;;;;;;4.63;2.88;;;;;;;16.70;58.68;97828.28;4905593;28;20135;-64
2022/06/21 04:53:05;;;;;;;8.98;3.10;;;;;;;16.82;58.33;97833.81;4957766;28;20085;-63
2022/06/21 04:55:40;;;;;;;4.80;2.65;;;;;;;16.83;57.67;97832.72;4957694;28;20055;-64
2022/06/21 04:58:08;;;;;;;7.03;2.63;;;;;;;16.87;57.19;97840.91;4974699;28;20050;-64
2022/06/21 05:00:34;;;;;;;6.30;2.80;;;;;;;16.88;57.38;97840.56;4974664;28;20064;-64
2022/06/21 05:03:14;;;;;;;6.70;3.17;;;;;;;16.87;57.96;97835.53;4974662;28;20035;-64
2022/06/21 05:05:40;;;;;;;5.15;2.72;;;;;;;16.92;58.14;97846.09;4957416;28;20043;-64
2022/06/21 05:08:19;;;;;;;7.97;3.42;;;;;;;17.01;57.77;97844.97;4974455;28;20047;-63
2022/06/21 05:10:48;;;;;;;11.93;3.42;;;;;;;17.12;58.03;97833.94;4974441;28;20413;-64
2022/06/21 05:13:35;;;;;;;9.50;3.50;;;;;;;17.28;58.18;97835.00;4974598;28;20049;-65
2022/06/21 05:16:11;;;;;;;7.80;3.50;;;;;;;17.35;57.25;97834.50;4956639;28;20062;-64
2022/06/21 05:18:41;;;;;;;11.57;3.15;;;;;;;17.45;56.75;97826.94;4974053;28;20129;-64
2022/06/21 05:21:12;;;;;;;9.75;3.50;;;;;;;17.55;57.42;97833.03;4956915;28;20053;-64
2022/06/21 05:23:38;;;;;;;5.78;3.40;;;;;;;17.67;56.87;97835.81;4956960;28;20050;-66
2022/06/21 05:26:09;;;;;;;8.13;3.97;;;;;;;17.76;57.06;97833.88;4956763;28;20069;-63
2022/06/21 05:28:49;;;;;;;8.15;3.70;;;;;;;17.76;56.69;97846.50;4956703;28;20035;-64
2022/06/21 05:31:23;;;;;;;6.82;3.75;;;;;;;17.77;56.79;97843.53;4972948;28;20125;-63
2022/06/21 05:34:05;;;;;;;7.45;3.30;;;;;;;17.82;57.11;97842.56;4957149;28;20105;-65
2022/06/21 05:36:35;;;;;;;9.73;3.88;;;;;;;17.89;57.30;97837.50;4973739;28;20527;-64
2022/06/21 05:39:22;;;;;;;12.18;4.25;;;;;;;17.96;56.64;97831.63;4956425;28;20053;-64
2022/06/21 05:41:51;;;;;;;7.60;3.67;;;;;;;18.02;56.33;97823.06;4973258;28;20059;-64
2022/06/21 05:44:36;;;;;;;10.55;3.70;;;;;;;18.19;56.66;97824.88;4940275;28;20043;-63
2022/06/21 05:47:23;;;;;;;8.82;3.53;;;;;;;18.36;55.35;97827.44;4940541;28;20113;-64
2022/06/21 05:49:49;;;;;;;9.38;4.10;;;;;;;18.49;54.35;97830.19;4973787;28;20229;-64
2022/06/21 05:52:20;;;;;;;6.18;3.67;;;;;;;18.70;53.53;97827.50;4956674;28;20423;-64
2022/06/21 05:54:50;;;;;;;21.67;12.77;;;;;;;18.87;53.09;97821.22;4956457;28;20051;-64
2022/06/21 05:57:19;;;;;;;5.65;3.47;;;;;;;18.99;52.54;97821.28;4956494;28;20050;-65
2022/06/21 05:59:45;;;;;;;8.45;3.40;;;;;;;19.02;52.48;97809.88;4956326;28;20416;-64
2022/06/21 06:02:18;;;;;;;7.43;3.20;;;;;;;19.17;51.67;97814.59;4956277;28;20047;-66
2022/06/21 06:04:51;;;;;;;5.65;3.72;;;;;;;19.38;52.16;97805.69;4956118;28;20042;-64
2022/06/21 06:07:29;;;;;;;6.35;3.30;;;;;;;19.42;51.65;97809.31;4956395;28;20039;-65
2022/06/21 06:09:57;;;;;;;6.63;3.75;;;;;;;19.36;52.06;97814.09;4956218;28;20050;-66
2022/06/21 06:12:25;;;;;;;7.72;3.63;;;;;;;19.37;52.08;97810.28;4940080;28;20046;-64
2022/06/21 06:14:55;;;;;;;7.38;3.15;;;;;;;19.54;51.25;97816.59;4955913;28;20035;-64
2022/06/21 06:17:49;;;;;;;9.82;3.70;;;;;;;19.72;49.83;97828.72;4972586;28;20110;-65
2022/06/21 06:20:58;;;;;;;9.38;3.40;;;;;;;19.73;50.37;97832.97;4944678;28;20133;-65
2022/06/21 06:23:42;;;;;;;11.27;5.15;;;;;;;19.62;51.91;97832.63;4947235;28;20058;-65
2022/06/21 06:26:16;;;;;;;9.80;5.07;;;;;;;19.48;52.12;97829.47;4973407;28;20577;-63
2022/06/21 06:28:50;;;;;;;11.32;4.32;;;;;;;19.39;51.79;97832.25;4973231;28;20405;-63
2022/06/21 06:31:24;;;;;;;6.18;3.88;;;;;;;19.33;52.45;97838.16;4973336;28;20050;-66
2022/06/21 06:34:14;;;;;;;7.95;3.75;;;;;;;19.27;52.25;97838.38;4972843;28;20097;-65
2022/06/21 06:36:44;;;;;;;12.10;3.72;;;;;;;19.20;51.58;97831.97;4972916;28;20043;-63
2022/06/21 06:39:16;;;;;;;6.38;3.20;;;;;;;19.13;51.06;97831.72;4972933;28;20050;-63
2022/06/21 06:42:01;;;;;;;7.50;2.88;;;;;;;19.04;50.94;97837.97;4939532;28;20501;-63
2022/06/21 06:44:29;;;;;;;7.30;3.00;;;;;;;18.96;50.88;97836.13;4972002;28;20061;-65
2022/06/21 06:46:55;;;;;;;6.95;2.70;;;;;;;18.93;51.37;97847.53;4973023;28;20066;-63
2022/06/21 06:49:40;;;;;;;6.07;3.05;;;;;;;18.95;52.41;97839.16;4972749;28;20050;-64
2022/06/21 06:52:13;;;;;;;5.22;3.10;;;;;;;18.95;51.67;97841.84;4955616;28;20047;-64
2022/06/21 06:54:44;;;;;;;5.95;3.10;;;;;;;18.99;51.63;97837.38;4972850;28;20106;-64
2022/06/21 06:57:15;;;;;;;6.75;3.63;;;;;;;19.01;51.68;97841.31;4972579;28;20129;-63
2022/06/21 06:59:43;;;;;;;6.25;3.05;;;;;;;19.04;52.24;97847.94;4972770;28;20043;-64
2022/06/21 07:02:32;;;;;;;7.90;3.65;;;;;;;18.94;52.54;97848.31;4955433;28;20053;-64
2022/06/21 07:05:21;;;;;;;5.97;3.25;;;;;;;18.91;53.08;97847.06;4955451;28;20420;-64
2022/06/21 07:07:53;;;;;;;13.10;3.72;;;;;;;18.89;54.04;97835.13;4955226;28;20571;-64
2022/06/21 07:10:21;;;;;;;7.60;4.07;;;;;;;18.90;53.77;97845.50;4954681;28;20046;-65
2022/06/21 07:12:49;;;;;;;17.13;5.30;;;;;;;18.91;54.32;97838.25;4955338;28;20039;-64
2022/06/21 07:15:15;;;;;;;6.63;3.83;;;;;;;18.94;54.40;97838.38;4955290;28;20054;-64
2022/06/21 07:17:55;;;;;;;10.45;4.05;;;;;;;18.98;54.23;97833.91;4972181;28;20051;-63
2022/06/21 07:20:24;;;;;;;9.55;4.18;;;;;;;19.09;54.04;97830.81;4972563;28;20047;-64
2022/06/21 07:22:52;;;;;;;13.57;4.80;;;;;;;19.15;54.24;97824.91;4954875;28;20066;-64
2022/06/21 07:25:32;;;;;;;9.80;4.13;;;;;;;19.20;53.98;97821.22;4955396;28;20046;-65
2022/06/21 07:28:02;;;;;;;13.45;4.78;;;;;;;19.22;54.50;97819.00;4975277;28;20504;-64
2022/06/21 07:30:38;;;;;;;8.80;3.80;;;;;;;19.23;53.95;97817.88;4958769;28;20070;-64
2022/06/21 07:33:12;;;;;;;13.45;4.25;;;;;;;19.36;53.60;97824.06;4960155;28;20134;-64
2022/06/21 07:35:46;;;;;;;8.18;4.90;;;;;;;19.43;53.17;97819.69;4958752;28;20468;-64
2022/06/21 07:38:18;;;;;;;8.50;4.50;;;;;;;19.50;52.47;97811.09;4959070;28;20242;-65
2022/06/21 07:40:48;;;;;;;8.15;4.35;;;;;;;19.68;51.99;97803.66;4976024;28;20198;-65
2022/06/21 07:43:18;;;;;;;7.22;4.05;;;;;;;19.89;52.03;97804.31;4958962;28;20125;-65
2022/06/21 07:45:48;;;;;;;9.48;4.13;;;;;;;20.07;50.65;97810.22;4976022;28;20050;-65
2022/06/21 07:48:21;;;;;;;14.68;4.53;;;;;;;20.18;50.26;97800.59;4958666;28;20047;-65
2022/06/21 07:50:51;;;;;;;8.35;4.65;;;;;;;20.31;50.43;97808.63;4976002;28;20046;-64
2022/06/21 07:53:36;;;;;;;8.63;4.65;;;;;;;20.35;50.32;97804.13;4975691;28;20062;-64
2022/06/21 07:56:24;;;;;;;7.35;5.00;;;;;;;20.31;50.00;97803.25;4958515;28;20109;-64
2022/06/21 07:58:57;;;;;;;9.55;5.35;;;;;;;20.37;50.25;97801.88;4958289;28;20051;-65
2022/06/21 08:07:49;;;;;;;7.93;4.45;;;;;;;20.29;48.48;97797.41;4975519;28;20046;-65
2022/06/21 08:10:24;;;;;;;8.40;4.57;;;;;;;20.39;48.50;97802.34;4958436;28;20061;-64
2022/06/21 08:12:50;;;;;;;7.03;4.15;;;;;;;20.42;47.76;97810.50;4975469;28;20477;-64
2022/06/21 08:15:17;;;;;;;6.07;3.40;;;;;;;20.58;47.37;97802.50;4958003;28;20096;-64
2022/06/21 08:17:50;;;;;;;5.60;3.47;;;;;;;20.75;47.43;97809.53;4975029;28;20145;-64
2022/06/21 08:20:27;;;;;;;10.70;4.75;;;;;;;20.91;47.87;97803.41;4975660;28;20130;-64
2022/06/21 08:23:00;;;;;;;12.05;3.50;;;;;;;21.09;47.10;97807.38;4957820;28;20042;-64
2022/06/21 08:26:04;;;;;;;8.23;3.88;;;;;;;21.18;47.14;97809.88;4958253;28;20077;-64
2022/06/21 08:28:30;;;;;;;8.55;3.33;;;;;;;21.35;45.93;97814.94;4958134;28;20542;-64
2022/06/21 08:31:15;;;;;;;13.07;3.30;;;;;;;21.33;44.40;97811.84;4975418;28;20134;-63
2022/06/21 08:33:46;;;;;;;3.92;2.10;;;;;;;21.23;45.26;97810.41;4975278;28;20042;-65
2022/06/21 08:36:20;;;;;;;6.80;2.88;;;;;;;21.32;45.25;97808.34;4957735;28;20509;-64
2022/06/21 08:39:01;;;;;;;4.38;2.38;;;;;;;21.46;43.82;97809.88;4974329;28;20055;-64
2022/06/21 08:41:52;;;;;;;6.22;2.60;;;;;;;21.67;43.76;97804.97;4957836;28;20046;-64
2022/06/21 08:45:40;;;;;;;5.13;2.90;;;;;;;21.67;44.63;97802.28;4957509;28;20046;-63
2022/06/21 08:48:22;;;;;;;6.43;2.55;;;;;;;21.63;43.64;97808.75;4974930;28;20133;-63
2022/06/21 08:51:18;;;;;;;8.50;2.60;;;;;;;21.51;43.59;97796.13;4973903;28;20049;-64
2022/06/21 08:54:06;;;;;;;4.32;2.33;;;;;;;21.47;43.22;97800.63;4974837;28;20130;-63
2022/06/21 08:57:13;;;;;;;4.60;2.35;;;;;;;21.49;43.64;97814.56;4974620;28;20085;-64
2022/06/21 09:00:28;;;;;;;9.23;2.80;;;;;;;21.47;42.90;97806.84;4936314;28;20063;-63
2022/06/21 09:03:04;;;;;;;2.88;2.10;;;;;;;21.75;42.49;97797.84;4880425;29;20052;-64
2022/06/21 09:05:35;;;;;;;4.60;1.90;;;;;;;21.95;40.98;97791.38;4953954;28;20101;-65
2022/06/21 09:08:19;;;;;;;10.32;2.25;;;;;;;22.18;40.68;97790.75;4974491;28;20117;-64
2022/06/21 09:11:06;;;;;;;5.80;2.13;;;;;;;22.32;40.88;97798.38;4974886;28;20058;-65
2022/06/21 09:14:01;;;;;;;2.67;1.90;;;;;;;22.40;40.76;97795.47;4974494;28;20130;-64
2022/06/21 09:16:35;;;;;;;6.55;2.13;;;;;;;22.17;41.42;97800.75;4957335;28;20050;-64
2022/06/21 09:19:26;;;;;;;3.47;2.08;;;;;;;21.88;41.30;97802.00;4974406;28;20162;-64
2022/06/21 09:22:24;;;;;;;5.68;2.40;;;;;;;21.96;41.49;97801.03;4957437;28;20055;-64
2022/06/21 09:25:27;;;;;;;3.50;2.38;;;;;;;22.10;41.70;97800.56;4957132;28;20050;-64
2022/06/21 09:28:04;;;;;;;10.25;3.15;;;;;;;22.23;42.70;97798.56;4974109;28;20069;-64
2022/06/21 09:30:39;;;;;;;7.50;2.67;;;;;;;22.32;42.79;97801.06;4941242;28;20350;-63
2022/06/21 09:33:15;;;;;;;6.05;2.60;;;;;;;22.40;41.97;97792.00;4974354;28;20057;-65
2022/06/21 09:35:56;;;;;;;4.18;2.40;;;;;;;22.47;41.87;97792.13;4974214;28;20066;-65
2022/06/21 09:38:27;;;;;;;4.38;2.30;;;;;;;22.48;41.18;97795.63;4956461;28;20053;-65
2022/06/21 09:41:08;;;;;;;5.78;2.47;;;;;;;22.57;41.26;97791.56;4974128;28;20057;-65
2022/06/21 09:43:46;;;;;;;6.85;2.58;;;;;;;22.62;41.33;97787.81;4973949;28;20068;-63
2022/06/21 09:46:23;;;;;;;7.50;2.60;;;;;;;22.61;41.56;97778.91;4956655;28;20050;-64
2022/06/21 09:49:08;;;;;;;5.75;2.58;;;;;;;22.41;42.27;97780.03;4956204;28;20526;-64
2022/06/21 09:51:48;;;;;;;5.93;3.20;;;;;;;22.40;42.62;97781.19;4972915;28;20042;-64
2022/06/21 09:54:17;;;;;;;6.78;3.78;;;;;;;22.28;42.53;97778.63;4956337;28;20140;-63
2022/06/21 09:56:50;;;;;;;6.03;3.30;;;;;;;22.10;43.02;97780.91;4973444;28;20516;-65
2022/06/21 09:59:28;;;;;;;4.90;3.45;;;;;;;21.90;43.21;97777.38;4973631;28;20078;-64
2022/06/21 10:02:21;;;;;;;6.20;3.42;;;;;;;21.78;43.88;97773.66;4973751;28;20073;-63
2022/06/21 10:05:08;;;;;;;5.85;2.95;;;;;;;21.89;43.70;97783.94;4956151;28;20506;-63
2022/06/21 10:08:15;;;;;;;5.97;3.10;;;;;;;21.70;44.51;97782.72;4973343;28;20055;-64
2022/06/21 10:10:59;;;;;;;3.45;3.13;;;;;;;21.81;44.31;97779.50;4972223;28;20157;-65
2022/06/21 10:13:32;;;;;;;8.18;2.92;;;;;;;21.86;43.68;97779.22;5068381;27;20411;-65
2022/06/21 10:16:06;;;;;;;5.63;2.85;;;;;;;21.87;43.93;97775.38;5068588;28;20045;-64
2022/06/21 10:18:37;;;;;;;6.53;2.88;;;;;;;21.81;43.75;97774.88;5068383;28;20426;-64
2022/06/21 10:21:30;;;;;;;9.60;3.15;;;;;;;21.93;44.29;97777.47;5068610;28;20066;-63
2022/06/21 10:24:07;;;;;;;4.80;2.78;;;;;;;21.94;43.51;97775.53;5040934;28;20091;-64
2022/06/21 10:27:01;;;;;;;7.30;3.60;;;;;;;21.65;44.11;97776.78;5068356;28;20497;-64
2022/06/21 10:29:46;;;;;;;7.57;3.30;;;;;;;21.50;44.43;97775.69;5067624;28;20049;-63
2022/06/21 10:32:23;;;;;;;5.50;3.35;;;;;;;21.40;44.33;97777.00;5068228;28;20051;-64
2022/06/21 10:34:55;;;;;;;9.05;3.30;;;;;;;21.17;44.99;97770.59;5066814;28;20047;-64
2022/06/21 10:37:30;;;;;;;5.70;3.33;;;;;;;20.99;46.30;97768.22;5068500;28;20138;-63
2022/06/21 10:40:22;;;;;;;7.28;3.50;;;;;;;20.88;48.28;97772.53;5066902;28;20044;-64
2022/06/21 10:43:16;;;;;;;8.13;3.35;;;;;;;20.77;49.51;97766.13;5066503;28;20048;-64
2022/06/21 10:45:51;;;;;;;7.72;3.63;;;;;;;20.58;49.30;97772.13;5066456;28;20044;-64
2022/06/21 10:48:22;;;;;;;6.15;3.88;;;;;;;20.41;50.69;97768.56;5068187;28;20128;-63
2022/06/21 10:51:06;;;;;;;9.50;5.93;;;;;;;20.29;52.71;97765.91;5067775;28;20040;-67
2022/06/21 10:53:35;;;;;;;13.25;7.15;;;;;;;20.12;54.70;97769.66;5066317;28;20136;-64
2022/06/21 10:59:25;;;;;;;16.05;7.50;;;;;;;19.61;58.27;97761.16;5067490;28;20425;-63
2022/06/21 11:02:28;;;;;;;14.60;7.75;;;;;;;19.39;58.75;97751.63;5067617;28;20059;-63
2022/06/21 11:05:12;;;;;;;12.15;8.23;;;;;;;19.17;60.25;97752.81;5032941;28;20438;-64
2022/06/21 11:08:00;;;;;;;10.98;7.68;;;;;;;18.96;60.35;97765.53;5067707;28;20452;-64
2022/06/21 11:10:31;;;;;;;18.33;9.15;;;;;;;18.92;61.29;97761.97;5067262;28;20506;-64
2022/06/21 11:13:04;;;;;;;10.30;7.70;;;;;;;18.76;60.49;97761.78;5066936;28;20063;-64
2022/06/21 11:15:49;;;;;;;11.95;8.57;;;;;;;18.64;61.44;97765.19;5067470;28;20131;-64
2022/06/21 11:18:27;;;;;;;13.75;8.10;;;;;;;18.62;62.44;97772.81;5067649;28;20075;-64
2022/06/21 11:20:58;;;;;;;13.50;7.82;;;;;;;18.66;63.11;97775.59;5049375;28;20105;-64
2022/06/21 11:23:27;;;;;;;13.15;8.40;;;;;;;18.66;63.07;97773.69;5062455;28;20053;-63
2022/06/21 11:26:01;;;;;;;10.82;7.72;;;;;;;18.76;62.50;97778.69;5053975;28;20091;-63
2022/06/21 11:28:40;;;;;;;10.40;8.07;;;;;;;18.86;61.93;97780.19;5036729;28;20155;-66
2022/06/21 11:31:10;;;;;;;14.93;8.40;;;;;;;18.98;62.85;97774.06;5052665;28;20517;-64
2022/06/21 11:33:54;;;;;;;12.02;8.52;;;;;;;19.06;62.48;97775.88;5052432;28;20098;-65
2022/06/21 11:36:49;;;;;;;14.70;8.95;;;;;;;19.04;62.47;97776.19;5054003;28;20175;-65
2022/06/21 11:39:30;;;;;;;12.63;9.75;;;;;;;19.07;61.81;97780.13;5052738;28;20127;-64
2022/06/21 11:42:21;;;;;;;13.10;9.45;;;;;;;19.11;61.36;97778.34;5053611;28;20045;-64
2022/06/21 11:44:52;;;;;;;16.35;9.70;;;;;;;19.26;60.99;97775.00;5052708;28;20033;-64
2022/06/21 11:47:30;;;;;;;15.35;9.45;;;;;;;19.47;60.73;97771.44;5053902;28;20044;-64
2022/06/21 11:50:18;;;;;;;16.63;9.50;;;;;;;19.55;60.78;97767.09;5053801;28;20032;-65
2022/06/21 11:53:05;;;;;;;17.13;10.20;;;;;;;19.52;60.93;97763.94;5035676;28;20404;-65
2022/06/21 11:55:45;;;;;;;13.85;9.85;;;;;;;19.40;60.64;97755.09;5035703;28;20577;-64
2022/06/21 11:58:20;;;;;;;;;;;;;;;19.40;60.45;97765.84;5052660;28;20134;-64
2022/06/21 12:00:52;;;;;;;12.65;8.70;;;;;;;19.36;59.47;97756.91;5053686;28;20019;-65
2022/06/21 12:03:39;;;;;;;15.02;8.68;;;;;;;19.29;58.61;97752.88;5035572;28;20536;-64
2022/06/21 12:06:11;;;;;;;13.95;9.48;;;;;;;19.32;59.24;97740.66;5052165;28;20041;-65
2022/06/21 12:08:51;;;;;;;10.18;8.32;;;;;;;19.38;58.49;97743.91;5051768;28;20041;-64
2022/06/21 12:11:22;;;;;;;16.20;9.00;;;;;;;19.40;58.85;97747.03;5051399;28;20055;-65
2022/06/21 12:14:02;;;;;;;13.75;9.18;;;;;;;19.34;59.34;97735.72;5052020;28;20390;-64
2022/06/21 12:16:41;;;;;;;12.10;9.68;;;;;;;19.33;59.81;97728.03;5052040;28;20068;-65
2022/06/21 12:19:15;;;;;;;13.77;10.07;;;;;;;19.28;59.22;97735.16;5051546;28;20068;-64
2022/06/21 12:21:57;;;;;;;13.75;9.50;;;;;;;19.26;59.29;97726.66;5052707;28;20063;-63
2022/06/21 12:24:24;;;;;;;15.10;8.60;;;;;;;19.29;58.36;97731.38;5051412;28;20410;-64
2022/06/21 12:26:51;;;;;;;19.35;9.80;;;;;;;19.24;58.42;97725.44;5034836;28;20041;-64